sensor_id;sensor_type;location;lat;lon;timestamp;pressure;altitude;pressure_sealevel;temperature;humidity
59545;BME280;45368;55.002;-1.592;2023-03-04T00:01:04;102523.34;;;4.02;51.88
59545;BME280;45368;55.002;-1.592;2023-03-04T00:03:31;102516.84;;;4.64;49.75
59545;BME280;45368;55.002;-1.592;2023-03-04T00:05:58;102513.60;;;4.42;49.51
59545;BME280;45368;55.002;-1.592;2023-03-04T00:08:26;102513.50;;;4.45;49.92
59545;BME280;45368;55.002;-1.592;2023-03-04T00:10:54;102516.17;;;4.41;50.37
59545;BME280;45368;55.002;-1.592;2023-03-04T00:13:21;102514.38;;;4.69;49.60
59545;BME280;45368;55.002;-1.592;2023-03-04T00:15:48;102513.59;;;4.83;49.34
59545;BME280;45368;55.002;-1.592;2023-03-04T00:18:15;102508.01;;;5.10;48.48
59545;BME280;45368;55.002;-1.592;2023-03-04T00:20:42;102510.10;;;4.95;48.56
59545;BME280;45368;55.002;-1.592;2023-03-04T00:23:09;102518.34;;;4.34;49.70
59545;BME280;45368;55.002;-1.592;2023-03-04T00:25:36;102515.84;;;4.99;48.51
59545;BME280;45368;55.002;-1.592;2023-03-04T00:28:03;102514.08;;;4.80;49.86
59545;BME280;45368;55.002;-1.592;2023-03-04T00:30:30;102509.27;;;4.91;48.05
59545;BME280;45368;55.002;-1.592;2023-03-04T00:32:58;102506.75;;;5.48;47.95
59545;BME280;45368;55.002;-1.592;2023-03-04T00:35:25;102505.53;;;5.47;48.38
59545;BME280;45368;55.002;-1.592;2023-03-04T00:37:53;102503.33;;;5.75;47.07
59545;BME280;45368;55.002;-1.592;2023-03-04T00:40:20;102503.78;;;5.43;47.26
59545;BME280;45368;55.002;-1.592;2023-03-04T00:42:47;102504.04;;;5.54;47.39
59545;BME280;45368;55.002;-1.592;2023-03-04T00:45:14;102513.75;;;4.43;49.05
59545;BME280;45368;55.002;-1.592;2023-03-04T00:47:42;102519.76;;;3.40;51.05
59545;BME280;45368;55.002;-1.592;2023-03-04T00:50:10;102519.59;;;3.21;51.91
59545;BME280;45368;55.002;-1.592;2023-03-04T00:52:38;102518.46;;;3.18;51.89
59545;BME280;45368;55.002;-1.592;2023-03-04T00:55:06;102514.59;;;3.48;51.91
59545;BME280;45368;55.002;-1.592;2023-03-04T00:57:34;102507.21;;;3.94;51.53
59545;BME280;45368;55.002;-1.592;2023-03-04T01:00:02;102507.04;;;4.30;50.19
59545;BME280;45368;55.002;-1.592;2023-03-04T01:02:29;102510.67;;;3.57;51.45
59545;BME280;45368;55.002;-1.592;2023-03-04T01:04:56;102513.71;;;3.45;51.68
59545;BME280;45368;55.002;-1.592;2023-03-04T01:07:24;102511.06;;;3.61;52.07
59545;BME280;45368;55.002;-1.592;2023-03-04T01:09:50;102506.56;;;3.82;51.42
59545;BME280;45368;55.002;-1.592;2023-03-04T01:12:18;102502.28;;;3.96;50.94
59545;BME280;45368;55.002;-1.592;2023-03-04T01:14:45;102505.67;;;3.73;51.39
59545;BME280;45368;55.002;-1.592;2023-03-04T01:17:12;102501.51;;;3.63;51.24
59545;BME280;45368;55.002;-1.592;2023-03-04T01:19:39;102503.41;;;3.77;51.52
59545;BME280;45368;55.002;-1.592;2023-03-04T01:22:06;102503.10;;;3.63;52.41
59545;BME280;45368;55.002;-1.592;2023-03-04T01:24:33;102504.31;;;3.74;51.75
59545;BME280;45368;55.002;-1.592;2023-03-04T01:27:01;102506.94;;;3.75;52.16
59545;BME280;45368;55.002;-1.592;2023-03-04T01:29:28;102494.91;;;4.65;50.60
59545;BME280;45368;55.002;-1.592;2023-03-04T01:31:55;102494.81;;;4.08;51.18
59545;BME280;45368;55.002;-1.592;2023-03-04T01:34:22;102495.00;;;4.94;49.79
59545;BME280;45368;55.002;-1.592;2023-03-04T01:36:49;102498.06;;;4.08;51.22
59545;BME280;45368;55.002;-1.592;2023-03-04T01:39:17;102494.58;;;3.90;51.40
59545;BME280;45368;55.002;-1.592;2023-03-04T01:41:44;102494.69;;;4.16;50.79
59545;BME280;45368;55.002;-1.592;2023-03-04T01:44:12;102492.38;;;3.97;51.32
59545;BME280;45368;55.002;-1.592;2023-03-04T01:46:43;102495.71;;;3.26;53.02
59545;BME280;45368;55.002;-1.592;2023-03-04T01:49:13;102494.12;;;3.60;52.48
59545;BME280;45368;55.002;-1.592;2023-03-04T01:51:42;102484.58;;;4.07;51.27
59545;BME280;45368;55.002;-1.592;2023-03-04T01:54:10;102485.73;;;3.72;51.19
59545;BME280;45368;55.002;-1.592;2023-03-04T01:56:38;102491.35;;;3.63;52.13
59545;BME280;45368;55.002;-1.592;2023-03-04T01:59:09;102486.30;;;3.74;52.11
59545;BME280;45368;55.002;-1.592;2023-03-04T02:01:43;102481.99;;;3.70;52.38
59545;BME280;45368;55.002;-1.592;2023-03-04T02:04:11;102475.77;;;4.42;50.53
59545;BME280;45368;55.002;-1.592;2023-03-04T02:06:39;102468.48;;;4.35;50.71
59545;BME280;45368;55.002;-1.592;2023-03-04T02:09:07;102466.73;;;5.17;48.90
59545;BME280;45368;55.002;-1.592;2023-03-04T02:11:35;102463.51;;;4.97;49.25
59545;BME280;45368;55.002;-1.592;2023-03-04T02:14:04;102464.00;;;4.29;50.20
59545;BME280;45368;55.002;-1.592;2023-03-04T02:16:32;102456.01;;;4.41;49.39
59545;BME280;45368;55.002;-1.592;2023-03-04T02:18:59;102447.74;;;5.23;47.58
59545;BME280;45368;55.002;-1.592;2023-03-04T02:21:29;102447.05;;;6.03;46.71
59545;BME280;45368;55.002;-1.592;2023-03-04T02:24:04;102440.52;;;4.90;47.83
59545;BME280;45368;55.002;-1.592;2023-03-04T02:26:36;102438.53;;;5.81;47.18
59545;BME280;45368;55.002;-1.592;2023-03-04T02:29:03;102435.45;;;5.01;47.84
59545;BME280;45368;55.002;-1.592;2023-03-04T02:31:34;102432.73;;;4.86;49.16
59545;BME280;45368;55.002;-1.592;2023-03-04T02:34:04;102436.41;;;4.17;50.37
59545;BME280;45368;55.002;-1.592;2023-03-04T02:36:33;102425.82;;;4.77;49.66
59545;BME280;45368;55.002;-1.592;2023-03-04T02:39:03;102424.97;;;5.08;48.69
59545;BME280;45368;55.002;-1.592;2023-03-04T02:41:31;102421.08;;;5.77;47.98
59545;BME280;45368;55.002;-1.592;2023-03-04T02:43:59;102421.70;;;5.21;48.17
59545;BME280;45368;55.002;-1.592;2023-03-04T02:46:26;102421.29;;;4.83;48.83
59545;BME280;45368;55.002;-1.592;2023-03-04T02:48:54;102426.32;;;4.75;49.58
59545;BME280;45368;55.002;-1.592;2023-03-04T02:51:21;102424.49;;;4.87;49.96
59545;BME280;45368;55.002;-1.592;2023-03-04T02:53:48;102420.99;;;4.36;50.10
59545;BME280;45368;55.002;-1.592;2023-03-04T02:56:15;102416.70;;;5.30;48.67
59545;BME280;45368;55.002;-1.592;2023-03-04T02:58:42;102418.43;;;4.41;49.45
59545;BME280;45368;55.002;-1.592;2023-03-04T03:01:09;102419.98;;;3.99;49.93
59545;BME280;45368;55.002;-1.592;2023-03-04T03:03:36;102416.14;;;4.88;48.70
59545;BME280;45368;55.002;-1.592;2023-03-04T03:06:03;102414.82;;;4.53;49.25
59545;BME280;45368;55.002;-1.592;2023-03-04T03:08:31;102418.13;;;4.32;49.96
59545;BME280;45368;55.002;-1.592;2023-03-04T03:10:58;102419.59;;;4.05;50.95
59545;BME280;45368;55.002;-1.592;2023-03-04T03:13:25;102419.65;;;3.68;52.14
59545;BME280;45368;55.002;-1.592;2023-03-04T03:15:56;102414.64;;;4.23;51.86
59545;BME280;45368;55.002;-1.592;2023-03-04T03:18:27;102412.43;;;3.84;52.19
59545;BME280;45368;55.002;-1.592;2023-03-04T03:20:58;102403.74;;;4.43;51.18
59545;BME280;45368;55.002;-1.592;2023-03-04T03:23:25;102404.28;;;4.38;51.34
59545;BME280;45368;55.002;-1.592;2023-03-04T03:25:56;102410.08;;;3.80;52.62
59545;BME280;45368;55.002;-1.592;2023-03-04T03:28:27;102408.72;;;3.32;53.36
59545;BME280;45368;55.002;-1.592;2023-03-04T03:30:54;102402.23;;;3.78;51.85
59545;BME280;45368;55.002;-1.592;2023-03-04T03:34:10;102401.89;;;4.69;50.43
59545;BME280;45368;55.002;-1.592;2023-03-04T03:36:38;102400.87;;;3.95;51.44
59545;BME280;45368;55.002;-1.592;2023-03-04T03:39:05;102397.84;;;3.77;51.94
59545;BME280;45368;55.002;-1.592;2023-03-04T03:41:48;102391.81;;;4.14;51.04
59545;BME280;45368;55.002;-1.592;2023-03-04T03:44:15;102388.38;;;4.13;51.52
59545;BME280;45368;55.002;-1.592;2023-03-04T03:46:43;102388.58;;;3.64;52.02
59545;BME280;45368;55.002;-1.592;2023-03-04T03:49:38;102389.07;;;4.46;51.62
59545;BME280;45368;55.002;-1.592;2023-03-04T03:52:21;102389.63;;;4.03;51.27
59545;BME280;45368;55.002;-1.592;2023-03-04T03:54:48;102386.46;;;3.54;52.68
59545;BME280;45368;55.002;-1.592;2023-03-04T03:57:16;102382.74;;;4.17;52.23
59545;BME280;45368;55.002;-1.592;2023-03-04T03:59:43;102381.97;;;4.06;52.50
59545;BME280;45368;55.002;-1.592;2023-03-04T04:02:10;102377.41;;;4.26;51.69
59545;BME280;45368;55.002;-1.592;2023-03-04T04:04:37;102380.65;;;4.10;51.75
59545;BME280;45368;55.002;-1.592;2023-03-04T04:07:04;102383.10;;;3.73;52.22
59545;BME280;45368;55.002;-1.592;2023-03-04T04:09:31;102388.29;;;3.12;54.32
59545;BME280;45368;55.002;-1.592;2023-03-04T04:11:59;102381.33;;;3.26;54.48
59545;BME280;45368;55.002;-1.592;2023-03-04T04:14:29;102382.12;;;3.50;54.29
59545;BME280;45368;55.002;-1.592;2023-03-04T04:16:57;102375.38;;;3.56;53.47
59545;BME280;45368;55.002;-1.592;2023-03-04T04:19:25;102382.18;;;2.95;54.87
59545;BME280;45368;55.002;-1.592;2023-03-04T04:21:53;102382.71;;;2.98;54.74
59545;BME280;45368;55.002;-1.592;2023-03-04T04:24:20;102381.92;;;3.36;54.44
59545;BME280;45368;55.002;-1.592;2023-03-04T04:26:47;102386.21;;;2.47;56.36
59545;BME280;45368;55.002;-1.592;2023-03-04T04:29:14;102391.80;;;2.74;55.59
59545;BME280;45368;55.002;-1.592;2023-03-04T04:31:42;102390.83;;;3.17;55.21
59545;BME280;45368;55.002;-1.592;2023-03-04T04:34:09;102384.05;;;3.42;54.29
59545;BME280;45368;55.002;-1.592;2023-03-04T04:36:36;102383.91;;;3.36;54.64
59545;BME280;45368;55.002;-1.592;2023-03-04T04:39:04;102386.76;;;2.40;56.37
59545;BME280;45368;55.002;-1.592;2023-03-04T04:41:36;102383.26;;;3.54;54.67
59545;BME280;45368;55.002;-1.592;2023-03-04T04:44:04;102381.43;;;4.07;53.25
59545;BME280;45368;55.002;-1.592;2023-03-04T04:46:32;102383.50;;;3.95;52.87
59545;BME280;45368;55.002;-1.592;2023-03-04T04:49:00;102384.62;;;3.28;54.53
59545;BME280;45368;55.002;-1.592;2023-03-04T04:51:28;102382.43;;;3.22;54.81
59545;BME280;45368;55.002;-1.592;2023-03-04T04:53:55;102381.34;;;3.75;53.41
59545;BME280;45368;55.002;-1.592;2023-03-04T04:56:23;102379.77;;;3.75;54.65
59545;BME280;45368;55.002;-1.592;2023-03-04T04:58:51;102377.99;;;3.24;54.84
59545;BME280;45368;55.002;-1.592;2023-03-04T05:01:20;102377.95;;;3.41;54.62
59545;BME280;45368;55.002;-1.592;2023-03-04T05:03:47;102376.71;;;3.30;54.69
59545;BME280;45368;55.002;-1.592;2023-03-04T05:06:15;102380.78;;;2.82;55.74
59545;BME280;45368;55.002;-1.592;2023-03-04T05:08:42;102379.90;;;3.73;54.13
59545;BME280;45368;55.002;-1.592;2023-03-04T05:11:09;102377.45;;;3.58;54.60
59545;BME280;45368;55.002;-1.592;2023-03-04T05:13:36;102377.75;;;3.28;54.50
59545;BME280;45368;55.002;-1.592;2023-03-04T05:16:04;102381.23;;;3.80;54.15
59545;BME280;45368;55.002;-1.592;2023-03-04T05:18:31;102385.40;;;3.59;54.07
59545;BME280;45368;55.002;-1.592;2023-03-04T05:21:01;102381.07;;;3.93;52.99
59545;BME280;45368;55.002;-1.592;2023-03-04T05:23:29;102381.72;;;3.84;53.45
59545;BME280;45368;55.002;-1.592;2023-03-04T05:25:57;102385.11;;;3.69;54.25
59545;BME280;45368;55.002;-1.592;2023-03-04T05:28:25;102381.19;;;4.33;53.24
59545;BME280;45368;55.002;-1.592;2023-03-04T05:30:52;102382.72;;;3.61;54.48
59545;BME280;45368;55.002;-1.592;2023-03-04T05:33:20;102380.13;;;3.18;55.39
59545;BME280;45368;55.002;-1.592;2023-03-04T05:35:48;102379.87;;;3.11;55.45
59545;BME280;45368;55.002;-1.592;2023-03-04T05:38:17;102382.64;;;3.27;55.50
59545;BME280;45368;55.002;-1.592;2023-03-04T05:40:45;102382.58;;;2.71;56.27
59545;BME280;45368;55.002;-1.592;2023-03-04T05:43:14;102383.07;;;2.95;56.69
59545;BME280;45368;55.002;-1.592;2023-03-04T05:45:41;102387.26;;;2.52;57.34
59545;BME280;45368;55.002;-1.592;2023-03-04T05:48:09;102382.85;;;2.84;56.42
59545;BME280;45368;55.002;-1.592;2023-03-04T05:50:36;102387.81;;;2.65;57.13
59545;BME280;45368;55.002;-1.592;2023-03-04T05:53:04;102385.50;;;2.78;56.15
59545;BME280;45368;55.002;-1.592;2023-03-04T05:55:31;102387.41;;;2.73;56.56
59545;BME280;45368;55.002;-1.592;2023-03-04T05:57:58;102387.12;;;2.48;56.97
59545;BME280;45368;55.002;-1.592;2023-03-04T06:00:26;102380.92;;;3.23;54.93
59545;BME280;45368;55.002;-1.592;2023-03-04T06:02:53;102381.36;;;3.06;55.13
59545;BME280;45368;55.002;-1.592;2023-03-04T06:05:21;102379.48;;;3.30;54.94
59545;BME280;45368;55.002;-1.592;2023-03-04T06:07:48;102374.21;;;3.63;54.09
59545;BME280;45368;55.002;-1.592;2023-03-04T06:10:16;102373.66;;;3.37;54.61
59545;BME280;45368;55.002;-1.592;2023-03-04T06:12:44;102372.42;;;3.54;53.61
59545;BME280;45368;55.002;-1.592;2023-03-04T06:15:12;102378.23;;;3.43;54.21
59545;BME280;45368;55.002;-1.592;2023-03-04T06:17:41;102382.47;;;3.32;54.87
59545;BME280;45368;55.002;-1.592;2023-03-04T06:20:10;102384.13;;;2.84;55.63
59545;BME280;45368;55.002;-1.592;2023-03-04T06:22:38;102394.13;;;2.08;58.01
59545;BME280;45368;55.002;-1.592;2023-03-04T06:25:06;102389.59;;;2.43;55.73
59545;BME280;45368;55.002;-1.592;2023-03-04T06:27:34;102389.76;;;3.03;55.68
59545;BME280;45368;55.002;-1.592;2023-03-04T06:30:02;102389.40;;;2.90;55.82
59545;BME280;45368;55.002;-1.592;2023-03-04T06:32:29;102389.62;;;2.75;55.89
59545;BME280;45368;55.002;-1.592;2023-03-04T06:34:56;102387.65;;;2.55;55.38
59545;BME280;45368;55.002;-1.592;2023-03-04T06:37:24;102393.19;;;2.56;56.25
59545;BME280;45368;55.002;-1.592;2023-03-04T06:39:51;102392.85;;;3.06;55.17
59545;BME280;45368;55.002;-1.592;2023-03-04T06:42:18;102387.53;;;3.66;53.72
59545;BME280;45368;55.002;-1.592;2023-03-04T06:44:45;102391.01;;;3.27;54.64
59545;BME280;45368;55.002;-1.592;2023-03-04T06:47:11;102388.43;;;3.08;54.03
59545;BME280;45368;55.002;-1.592;2023-03-04T06:49:39;102397.28;;;2.20;56.23
59545;BME280;45368;55.002;-1.592;2023-03-04T06:52:06;102393.28;;;3.24;54.20
59545;BME280;45368;55.002;-1.592;2023-03-04T06:54:34;102395.85;;;2.81;54.40
59545;BME280;45368;55.002;-1.592;2023-03-04T06:57:00;102397.47;;;2.50;54.25
59545;BME280;45368;55.002;-1.592;2023-03-04T06:59:28;102398.52;;;3.41;53.43
59545;BME280;45368;55.002;-1.592;2023-03-04T07:01:55;102396.88;;;3.61;52.70
59545;BME280;45368;55.002;-1.592;2023-03-04T07:04:22;102402.31;;;3.16;53.27
59545;BME280;45368;55.002;-1.592;2023-03-04T07:06:50;102401.50;;;2.49;55.02
59545;BME280;45368;55.002;-1.592;2023-03-04T07:09:18;102401.83;;;2.47;55.00
59545;BME280;45368;55.002;-1.592;2023-03-04T07:11:45;102403.24;;;2.88;54.25
59545;BME280;45368;55.002;-1.592;2023-03-04T07:14:13;102401.55;;;3.53;52.87
59545;BME280;45368;55.002;-1.592;2023-03-04T07:16:41;102409.87;;;2.78;53.11
59545;BME280;45368;55.002;-1.592;2023-03-04T07:19:08;102410.88;;;3.02;53.87
59545;BME280;45368;55.002;-1.592;2023-03-04T07:21:36;102409.68;;;3.30;52.67
59545;BME280;45368;55.002;-1.592;2023-03-04T07:24:04;102409.69;;;3.12;53.02
59545;BME280;45368;55.002;-1.592;2023-03-04T07:26:31;102397.95;;;4.42;50.44
59545;BME280;45368;55.002;-1.592;2023-03-04T07:28:59;102398.97;;;3.45;51.06
59545;BME280;45368;55.002;-1.592;2023-03-04T07:31:28;102400.46;;;3.80;50.88
59545;BME280;45368;55.002;-1.592;2023-03-04T07:33:57;102400.93;;;3.92;50.60
59545;BME280;45368;55.002;-1.592;2023-03-04T07:36:26;102401.72;;;3.95;49.81
59545;BME280;45368;55.002;-1.592;2023-03-04T07:39:18;102403.22;;;3.69;50.83
59545;BME280;45368;55.002;-1.592;2023-03-04T07:41:45;102409.47;;;2.73;52.68
59545;BME280;45368;55.002;-1.592;2023-03-04T07:44:13;102406.81;;;2.84;51.95
59545;BME280;45368;55.002;-1.592;2023-03-04T07:46:41;102402.30;;;3.23;51.47
59545;BME280;45368;55.002;-1.592;2023-03-04T07:49:09;102403.84;;;3.85;50.59
59545;BME280;45368;55.002;-1.592;2023-03-04T07:51:37;102403.71;;;3.99;49.74
59545;BME280;45368;55.002;-1.592;2023-03-04T07:54:04;102405.20;;;3.60;50.39
59545;BME280;45368;55.002;-1.592;2023-03-04T07:56:32;102403.15;;;4.11;49.81
59545;BME280;45368;55.002;-1.592;2023-03-04T07:59:00;102405.57;;;4.10;50.02
59545;BME280;45368;55.002;-1.592;2023-03-04T08:01:30;102399.08;;;4.25;48.90
59545;BME280;45368;55.002;-1.592;2023-03-04T08:03:58;102403.18;;;3.94;49.58
59545;BME280;45368;55.002;-1.592;2023-03-04T08:06:26;102405.36;;;3.79;50.22
59545;BME280;45368;55.002;-1.592;2023-03-04T08:08:56;102403.63;;;4.42;48.65
59545;BME280;45368;55.002;-1.592;2023-03-04T08:11:23;102408.32;;;3.93;49.33
59545;BME280;45368;55.002;-1.592;2023-03-04T08:13:51;102409.71;;;4.55;49.04
59545;BME280;45368;55.002;-1.592;2023-03-04T08:16:19;102408.03;;;4.24;48.86
59545;BME280;45368;55.002;-1.592;2023-03-04T08:18:49;102410.57;;;4.77;48.00
59545;BME280;45368;55.002;-1.592;2023-03-04T08:21:18;102408.83;;;5.26;47.50
59545;BME280;45368;55.002;-1.592;2023-03-04T08:23:47;102417.11;;;4.83;47.61
59545;BME280;45368;55.002;-1.592;2023-03-04T08:26:17;102419.01;;;4.16;50.29
59545;BME280;45368;55.002;-1.592;2023-03-04T08:28:45;102420.33;;;4.46;49.58
59545;BME280;45368;55.002;-1.592;2023-03-04T08:31:13;102420.61;;;4.20;49.70
59545;BME280;45368;55.002;-1.592;2023-03-04T08:33:42;102422.04;;;3.98;50.20
59545;BME280;45368;55.002;-1.592;2023-03-04T08:36:10;102422.70;;;4.14;50.35
59545;BME280;45368;55.002;-1.592;2023-03-04T08:38:38;102417.20;;;4.49;49.26
59545;BME280;45368;55.002;-1.592;2023-03-04T08:41:06;102414.36;;;5.07;47.75
59545;BME280;45368;55.002;-1.592;2023-03-04T08:43:34;102417.09;;;5.41;47.02
59545;BME280;45368;55.002;-1.592;2023-03-04T08:46:01;102418.02;;;4.10;50.02
59545;BME280;45368;55.002;-1.592;2023-03-04T08:48:29;102421.49;;;3.77;50.76
59545;BME280;45368;55.002;-1.592;2023-03-04T08:50:56;102421.82;;;3.91;50.53
59545;BME280;45368;55.002;-1.592;2023-03-04T08:53:24;102416.92;;;4.29;49.49
59545;BME280;45368;55.002;-1.592;2023-03-04T08:55:51;102418.83;;;4.92;48.51
59545;BME280;45368;55.002;-1.592;2023-03-04T08:58:19;102415.05;;;4.88;47.58
59545;BME280;45368;55.002;-1.592;2023-03-04T09:00:51;102420.52;;;3.52;49.17
59545;BME280;45368;55.002;-1.592;2023-03-04T09:03:18;102417.19;;;3.75;50.68
59545;BME280;45368;55.002;-1.592;2023-03-04T09:05:47;102423.26;;;2.90;52.18
59545;BME280;45368;55.002;-1.592;2023-03-04T09:08:14;102422.25;;;3.58;50.96
59545;BME280;45368;55.002;-1.592;2023-03-04T09:10:42;102418.76;;;3.79;51.16
59545;BME280;45368;55.002;-1.592;2023-03-04T09:13:09;102414.68;;;4.64;49.05
59545;BME280;45368;55.002;-1.592;2023-03-04T09:15:45;102415.44;;;4.31;48.49
59545;BME280;45368;55.002;-1.592;2023-03-04T09:18:13;102409.17;;;4.55;48.42
59545;BME280;45368;55.002;-1.592;2023-03-04T09:21:11;102405.06;;;4.64;48.61
59545;BME280;45368;55.002;-1.592;2023-03-04T09:24:16;102409.08;;;4.26;49.15
59545;BME280;45368;55.002;-1.592;2023-03-04T09:26:43;102404.64;;;4.86;47.60
59545;BME280;45368;55.002;-1.592;2023-03-04T09:29:39;102404.51;;;5.61;46.80
59545;BME280;45368;55.002;-1.592;2023-03-04T09:32:14;102399.47;;;5.57;46.42
59545;BME280;45368;55.002;-1.592;2023-03-04T09:34:42;102400.59;;;5.24;47.00
59545;BME280;45368;55.002;-1.592;2023-03-04T09:37:09;102396.97;;;5.25;47.51
59545;BME280;45368;55.002;-1.592;2023-03-04T09:39:36;102402.09;;;4.50;48.95
59545;BME280;45368;55.002;-1.592;2023-03-04T09:42:05;102400.10;;;3.90;50.53
59545;BME280;45368;55.002;-1.592;2023-03-04T09:44:36;102395.60;;;4.82;48.83
59545;BME280;45368;55.002;-1.592;2023-03-04T09:47:08;102394.48;;;5.06;48.09
59545;BME280;45368;55.002;-1.592;2023-03-04T09:49:41;102398.56;;;5.75;45.68
59545;BME280;45368;55.002;-1.592;2023-03-04T09:52:19;102398.19;;;4.52;47.45
59545;BME280;45368;55.002;-1.592;2023-03-04T09:55:01;102401.83;;;5.67;47.32
59545;BME280;45368;55.002;-1.592;2023-03-04T09:57:46;102401.38;;;4.62;48.30
59545;BME280;45368;55.002;-1.592;2023-03-04T10:00:17;102401.18;;;5.04;48.42
59545;BME280;45368;55.002;-1.592;2023-03-04T10:03:01;102398.31;;;5.12;47.88
59545;BME280;45368;55.002;-1.592;2023-03-04T10:05:31;102395.39;;;6.08;46.37
59545;BME280;45368;55.002;-1.592;2023-03-04T10:08:20;102396.46;;;4.71;48.60
59545;BME280;45368;55.002;-1.592;2023-03-04T10:10:51;102402.42;;;3.77;51.30
59545;BME280;45368;55.002;-1.592;2023-03-04T10:13:25;102394.81;;;4.75;49.58
59545;BME280;45368;55.002;-1.592;2023-03-04T10:15:58;102393.80;;;4.71;49.46
59545;BME280;45368;55.002;-1.592;2023-03-04T10:18:30;102395.82;;;4.30;50.09
59545;BME280;45368;55.002;-1.592;2023-03-04T10:21:05;102397.59;;;4.24;51.23
59545;BME280;45368;55.002;-1.592;2023-03-04T10:23:34;102393.87;;;4.42;50.14
59545;BME280;45368;55.002;-1.592;2023-03-04T10:26:11;102390.07;;;4.25;50.09
59545;BME280;45368;55.002;-1.592;2023-03-04T10:28:40;102387.73;;;3.97;50.71
59545;BME280;45368;55.002;-1.592;2023-03-04T10:31:14;102388.73;;;4.38;49.75
59545;BME280;45368;55.002;-1.592;2023-03-04T10:33:43;102387.80;;;4.07;49.49
59545;BME280;45368;55.002;-1.592;2023-03-04T10:36:37;102381.60;;;5.30;47.57
59545;BME280;45368;55.002;-1.592;2023-03-04T10:39:40;102390.51;;;4.67;49.55
59545;BME280;45368;55.002;-1.592;2023-03-04T10:46:54;102383.50;;;4.38;51.76
59545;BME280;45368;55.002;-1.592;2023-03-04T10:49:50;102384.89;;;4.52;51.31
59545;BME280;45368;55.002;-1.592;2023-03-04T10:56:00;102382.09;;;5.36;50.32
59545;BME280;45368;55.002;-1.592;2023-03-04T10:58:28;102382.88;;;5.12;49.03
59545;BME280;45368;55.002;-1.592;2023-03-04T11:01:02;102385.86;;;5.84;48.31
59545;BME280;45368;55.002;-1.592;2023-03-04T11:03:36;102390.67;;;6.13;47.39
59545;BME280;45368;55.002;-1.592;2023-03-04T11:06:09;102386.39;;;5.15;48.56
59545;BME280;45368;55.002;-1.592;2023-03-04T11:08:39;102390.64;;;4.26;51.52
59545;BME280;45368;55.002;-1.592;2023-03-04T11:11:23;102387.63;;;4.69;51.59
59545;BME280;45368;55.002;-1.592;2023-03-04T11:13:53;102385.59;;;5.19;49.40
59545;BME280;45368;55.002;-1.592;2023-03-04T11:16:25;102384.17;;;4.88;49.47
59545;BME280;45368;55.002;-1.592;2023-03-04T11:18:54;102384.89;;;4.77;50.92
59545;BME280;45368;55.002;-1.592;2023-03-04T11:21:26;102380.64;;;4.73;51.89
59545;BME280;45368;55.002;-1.592;2023-03-04T11:23:57;102374.15;;;5.20;50.28
59545;BME280;45368;55.002;-1.592;2023-03-04T11:26:29;102368.69;;;4.65;50.54
59545;BME280;45368;55.002;-1.592;2023-03-04T11:29:01;102368.54;;;5.38;50.10
59545;BME280;45368;55.002;-1.592;2023-03-04T11:31:35;102371.37;;;5.43;48.80
59545;BME280;45368;55.002;-1.592;2023-03-04T11:34:11;102370.82;;;5.49;49.58
59545;BME280;45368;55.002;-1.592;2023-03-04T11:36:50;102368.73;;;5.86;49.31
59545;BME280;45368;55.002;-1.592;2023-03-04T11:39:23;102362.45;;;5.14;49.92
59545;BME280;45368;55.002;-1.592;2023-03-04T11:41:57;102360.05;;;5.82;48.75
59545;BME280;45368;55.002;-1.592;2023-03-04T11:44:25;102364.49;;;4.84;51.12
59545;BME280;45368;55.002;-1.592;2023-03-04T11:47:05;102360.51;;;4.83;51.44
59545;BME280;45368;55.002;-1.592;2023-03-04T11:49:53;102359.25;;;4.63;51.99
59545;BME280;45368;55.002;-1.592;2023-03-04T11:52:34;102352.85;;;5.49;50.41
59545;BME280;45368;55.002;-1.592;2023-03-04T11:55:20;102349.93;;;6.02;49.09
59545;BME280;45368;55.002;-1.592;2023-03-04T11:57:59;102349.31;;;6.00;48.91
59545;BME280;45368;55.002;-1.592;2023-03-04T12:00:37;102343.12;;;5.40;49.79
59545;BME280;45368;55.002;-1.592;2023-03-04T12:03:21;102344.36;;;5.53;49.51
59545;BME280;45368;55.002;-1.592;2023-03-04T12:05:53;102340.82;;;5.54;50.55
59545;BME280;45368;55.002;-1.592;2023-03-04T12:08:37;102334.47;;;5.06;51.42
59545;BME280;45368;55.002;-1.592;2023-03-04T12:11:11;102329.31;;;5.57;50.47
59545;BME280;45368;55.002;-1.592;2023-03-04T12:14:33;102323.88;;;5.76;49.29
59545;BME280;45368;55.002;-1.592;2023-03-04T12:17:25;102318.14;;;5.64;49.44
59545;BME280;45368;55.002;-1.592;2023-03-04T12:20:14;102309.26;;;6.78;47.86
59545;BME280;45368;55.002;-1.592;2023-03-04T12:22:45;102303.62;;;7.18;47.11
59545;BME280;45368;55.002;-1.592;2023-03-04T12:25:32;102309.32;;;6.34;48.08
59545;BME280;45368;55.002;-1.592;2023-03-04T12:28:16;102308.04;;;6.31;47.59
59545;BME280;45368;55.002;-1.592;2023-03-04T12:30:58;102310.19;;;6.44;48.43
59545;BME280;45368;55.002;-1.592;2023-03-04T12:33:35;102306.72;;;7.18;48.01
59545;BME280;45368;55.002;-1.592;2023-03-04T12:36:15;102306.48;;;5.24;50.47
59545;BME280;45368;55.002;-1.592;2023-03-04T12:38:58;102294.71;;;6.93;48.82
59545;BME280;45368;55.002;-1.592;2023-03-04T12:41:34;102292.95;;;7.34;47.87
59545;BME280;45368;55.002;-1.592;2023-03-04T12:44:12;102296.46;;;6.16;49.41
59545;BME280;45368;55.002;-1.592;2023-03-04T12:46:48;102288.99;;;6.45;48.29
59545;BME280;45368;55.002;-1.592;2023-03-04T12:49:32;102293.06;;;6.11;49.71
59545;BME280;45368;55.002;-1.592;2023-03-04T12:52:12;102290.24;;;6.09;49.63
59545;BME280;45368;55.002;-1.592;2023-03-04T12:54:45;102285.20;;;5.23;51.15
59545;BME280;45368;55.002;-1.592;2023-03-04T12:57:17;102286.68;;;5.81;50.81
59545;BME280;45368;55.002;-1.592;2023-03-04T12:59:50;102288.25;;;5.68;51.57
59545;BME280;45368;55.002;-1.592;2023-03-04T13:02:34;102282.60;;;6.51;49.56
59545;BME280;45368;55.002;-1.592;2023-03-04T13:05:22;102282.95;;;6.73;49.35
59545;BME280;45368;55.002;-1.592;2023-03-04T13:07:58;102283.92;;;5.80;51.65
59545;BME280;45368;55.002;-1.592;2023-03-04T13:10:28;102275.70;;;6.34;50.69
59545;BME280;45368;55.002;-1.592;2023-03-04T13:12:57;102267.18;;;7.19;49.16
59545;BME280;45368;55.002;-1.592;2023-03-04T13:15:34;102263.14;;;7.88;47.75
59545;BME280;45368;55.002;-1.592;2023-03-04T13:18:29;102258.67;;;7.44;47.81